Time;durP1;ratioP1;P1;durP2;ratioP2;P2;SDS_P1;SDS_P2;PMS_P1;PMS_P2;Temp;Humidity;BMP_temperature;BMP_pressure;BME280_temperature;BME280_humidity;BME280_pressure;Samples;Min_cycle;Max_cycle;Signal;HPM_P1;HPM_P2
2022/09/16 00:01:23;;;;;;;3.25;0.75;;;;;;;22.19;34.91;93367.97;4951975;28;20043;-77
2022/09/16 00:03:54;;;;;;;5.07;1.10;;;;;;;22.27;36.30;93378.38;4952847;28;20031;-77
2022/09/16 00:06:23;;;;;;;2.83;1.48;;;;;;;22.40;37.56;93392.22;4948275;28;20030;-78
2022/09/16 00:08:49;;;;;;;3.60;1.83;;;;;;;22.31;38.01;93383.75;4950801;28;20032;-77
2022/09/16 00:11:16;;;;;;;2.85;1.38;;;;;;;22.32;38.27;93384.53;4953987;28;20023;-80
2022/09/16 00:13:42;;;;;;;2.00;1.13;;;;;;;22.25;38.43;93383.41;4951084;28;20034;-78
2022/09/16 00:16:15;;;;;;;3.40;1.25;;;;;;;22.20;38.57;93377.59;4949116;28;20037;-77
2022/09/16 00:18:40;;;;;;;5.75;1.65;;;;;;;22.33;38.80;93380.66;4949918;28;20031;-77
2022/09/16 00:21:08;;;;;;;6.35;2.42;;;;;;;22.35;38.84;93383.72;4952272;28;20034;-77
2022/09/16 00:23:34;;;;;;;2.53;1.38;;;;;;;22.44;38.92;93408.47;4951360;28;20034;-77
2022/09/16 00:25:59;;;;;;;2.78;1.33;;;;;;;22.42;38.97;93394.53;4951479;28;20022;-77
2022/09/16 00:28:25;;;;;;;1.70;1.20;;;;;;;22.23;39.34;93376.84;4951064;28;20030;-77
2022/09/16 00:30:51;;;;;;;5.45;1.23;;;;;;;22.26;39.01;93381.47;4951506;28;20198;-77
2022/09/16 00:33:17;;;;;;;5.38;1.13;;;;;;;22.24;39.00;93387.28;4949701;28;20515;-77
2022/09/16 00:35:42;;;;;;;3.05;1.50;;;;;;;22.33;39.00;93407.75;4957415;28;20077;-79
2022/09/16 00:38:08;;;;;;;4.00;1.33;;;;;;;22.15;39.12;93376.09;4950968;28;20787;-78
2022/09/16 00:40:33;;;;;;;1.95;1.00;;;;;;;22.13;39.32;93354.06;4949822;28;21001;-77
2022/09/16 00:42:59;;;;;;;4.70;1.42;;;;;;;21.90;38.58;93351.13;4949125;28;20034;-78
2022/09/16 00:45:30;;;;;;;2.53;1.10;;;;;;;22.13;38.51;93369.53;4953392;28;20477;-77
2022/09/16 00:48:02;;;;;;;3.97;1.60;;;;;;;22.16;38.19;93358.69;4950215;28;20110;-77
2022/09/16 00:50:40;;;;;;;5.55;1.38;;;;;;;22.03;38.71;93375.78;4950570;28;20503;-77
2022/09/16 00:53:14;;;;;;;4.35;1.05;;;;;;;21.75;39.78;93368.59;4951692;28;20035;-77
2022/09/16 00:55:41;;;;;;;3.50;0.90;;;;;;;21.69;39.90;93375.56;4958173;28;20054;-76
2022/09/16 00:58:23;;;;;;;2.22;1.35;;;;;;;21.52;40.93;93379.06;4949955;28;20038;-76
2022/09/16 01:00:49;;;;;;;3.83;1.20;;;;;;;21.51;39.87;93359.38;4951078;28;20512;-77
2022/09/16 01:03:15;;;;;;;4.47;1.30;;;;;;;21.84;40.13;93404.13;4948492;28;20110;-76
2022/09/16 01:05:43;;;;;;;4.22;1.85;;;;;;;21.74;39.71;93367.03;4952163;28;20046;-79
2022/09/16 01:08:08;;;;;;;8.90;1.92;;;;;;;21.76;40.05;93372.81;4952685;28;20029;-77
2022/09/16 01:10:34;;;;;;;1.48;1.23;;;;;;;21.83;39.34;93364.69;4951186;28;20027;-76
2022/09/16 01:13:04;;;;;;;4.65;1.40;;;;;;;21.89;39.81;93382.06;4951681;28;20438;-77
2022/09/16 01:15:42;;;;;;;3.55;1.10;;;;;;;22.05;39.52;93400.50;4947554;28;20033;-77
2022/09/16 01:18:24;;;;;;;4.72;1.63;;;;;;;22.03;39.44;93400.94;4951346;28;20039;-76
2022/09/16 01:20:58;;;;;;;3.70;1.75;;;;;;;22.03;39.49;93403.63;4947084;28;20041;-78
2022/09/16 01:23:39;;;;;;;3.00;1.43;;;;;;;21.90;39.90;93397.13;4959307;28;20072;-77
2022/09/16 01:26:33;;;;;;;5.63;1.13;;;;;;;21.98;39.76;93397.84;4951901;28;20347;-77
2022/09/16 01:29:46;;;;;;;5.63;1.40;;;;;;;22.01;39.73;93394.34;4957160;28;20042;-77
2022/09/16 01:32:47;;;;;;;4.50;2.03;;;;;;;21.76;40.01;93378.22;4944822;28;20053;-77
2022/09/16 01:35:33;;;;;;;3.53;1.52;;;;;;;21.93;39.96;93401.75;4948454;28;20059;-76
2022/09/16 01:38:26;;;;;;;3.17;1.35;;;;;;;21.97;39.86;93402.50;4953948;28;20031;-76
2022/09/16 01:41:06;;;;;;;2.25;1.13;;;;;;;21.90;39.81;93370.06;4955693;28;20050;-77
2022/09/16 01:44:01;;;;;;;2.28;1.00;;;;;;;22.02;40.36;93390.47;4960405;28;20089;-76
2022/09/16 01:46:39;;;;;;;10.85;1.30;;;;;;;22.02;40.07;93383.13;4951584;28;20049;-78
2022/09/16 01:49:20;;;;;;;3.75;1.17;;;;;;;21.95;40.07;93402.13;4958869;28;20150;-78
2022/09/16 01:51:52;;;;;;;3.17;1.50;;;;;;;21.96;39.97;93387.41;4953924;28;20034;-78
2022/09/16 01:54:32;;;;;;;2.10;0.82;;;;;;;21.90;39.52;93383.59;4952391;28;20051;-77
2022/09/16 01:57:12;;;;;;;5.10;1.30;;;;;;;21.70;40.20;93371.72;4954113;28;20397;-76
2022/09/16 02:00:01;;;;;;;4.53;1.20;;;;;;;21.65;40.47;93340.41;4959334;28;20031;-77
2022/09/16 02:02:55;;;;;;;2.53;0.95;;;;;;;21.81;39.34;93367.00;4953450;28;20030;-76
2022/09/16 02:05:31;;;;;;;7.38;1.77;;;;;;;21.73;39.19;93349.25;4953006;28;20437;-77
2022/09/16 02:08:05;;;;;;;7.25;1.65;;;;;;;21.73;39.46;93366.28;4954925;28;20023;-76
2022/09/16 02:10:40;;;;;;;2.53;1.35;;;;;;;21.76;39.12;93368.19;4954456;28;20145;-77
2022/09/16 02:13:13;;;;;;;2.20;1.70;;;;;;;21.81;39.99;93361.59;4958158;28;20030;-78
2022/09/16 02:15:42;;;;;;;3.95;1.15;;;;;;;21.75;40.31;93361.25;4953608;28;20097;-77
2022/09/16 02:18:11;;;;;;;3.63;1.30;;;;;;;21.72;40.72;93366.66;4953046;28;20031;-77
2022/09/16 02:20:41;;;;;;;5.65;1.20;;;;;;;21.93;39.85;93382.03;4952032;28;20027;-77
2022/09/16 02:23:15;;;;;;;4.45;1.60;;;;;;;21.95;40.03;93385.88;4967762;28;20022;-77
2022/09/16 02:25:45;;;;;;;4.70;1.05;;;;;;;21.78;40.12;93362.38;4959451;28;20076;-78
2022/09/16 02:28:16;;;;;;;3.25;1.30;;;;;;;21.83;40.21;93375.50;4951555;28;20045;-77
2022/09/16 02:30:46;;;;;;;3.55;1.30;;;;;;;21.76;40.18;93370.13;4953386;28;20118;-78
2022/09/16 02:33:13;;;;;;;2.95;1.60;;;;;;;21.66;40.42;93366.28;4950706;28;20073;-78
2022/09/16 02:35:40;;;;;;;1.83;1.15;;;;;;;21.71;40.67;93373.22;4954339;28;20023;-77
2022/09/16 02:38:22;;;;;;;1.40;0.90;;;;;;;21.74;40.24;93383.28;4953043;28;20031;-77
2022/09/16 02:40:53;;;;;;;3.60;1.15;;;;;;;21.76;40.60;93383.63;4953992;28;20041;-77
2022/09/16 02:43:18;;;;;;;2.40;0.98;;;;;;;21.80;40.69;93387.88;4953201;28;20508;-77
2022/09/16 02:46:03;;;;;;;4.15;1.02;;;;;;;21.90;40.45;93402.56;4951219;28;20034;-78
2022/09/16 02:48:47;;;;;;;3.00;1.20;;;;;;;21.93;40.84;93411.81;4958851;28;20038;-79
2022/09/16 02:51:36;;;;;;;1.83;1.17;;;;;;;21.75;40.67;93379.41;4954436;28;20023;-77
2022/09/16 02:54:10;;;;;;;3.83;1.30;;;;;;;21.62;40.89;93386.41;4951811;28;20035;-78
2022/09/16 02:56:38;;;;;;;5.77;1.63;;;;;;;21.68;40.61;93374.03;4951557;28;20035;-77
2022/09/16 02:59:06;;;;;;;3.05;1.10;;;;;;;21.76;41.09;93416.91;4953723;28;20465;-78
2022/09/16 03:01:37;;;;;;;2.22;1.33;;;;;;;21.73;40.85;93398.75;4954360;28;20060;-78
2022/09/16 03:04:03;;;;;;;2.38;0.80;;;;;;;21.63;40.66;93399.56;4957933;28;20031;-78
2022/09/16 03:06:29;;;;;;;7.00;1.95;;;;;;;21.61;40.53;93387.59;4952104;28;20037;-78
2022/09/16 03:08:59;;;;;;;4.65;1.63;;;;;;;21.64;40.40;93384.09;4953603;28;20042;-78
2022/09/16 03:11:30;;;;;;;3.72;1.35;;;;;;;21.86;40.11;93413.38;4951983;28;20117;-77
2022/09/16 03:13:57;;;;;;;2.95;1.35;;;;;;;21.93;40.34;93423.41;4952024;28;20023;-76
2022/09/16 03:16:44;;;;;;;2.75;1.27;;;;;;;21.70;40.68;93377.13;4952844;28;20110;-78
2022/09/16 03:19:20;;;;;;;9.70;1.40;;;;;;;22.00;40.96;93436.91;4951463;28;20027;-77
2022/09/16 03:22:22;;;;;;;3.00;1.38;;;;;;;21.95;41.09;93423.03;4953160;28;20031;-76
2022/09/16 03:25:23;;;;;;;3.67;1.38;;;;;;;21.97;42.18;93418.75;4931681;28;20606;-77
2022/09/16 03:28:01;;;;;;;6.00;1.73;;;;;;;21.87;41.51;93408.72;4947686;28;20045;-77
2022/09/16 03:30:32;;;;;;;3.38;1.08;;;;;;;22.01;40.56;93429.56;4952407;28;20050;-78
2022/09/16 03:33:04;;;;;;;3.53;1.20;;;;;;;22.10;41.08;93417.13;4951917;28;20952;-77
2022/09/16 03:35:42;;;;;;;2.35;1.30;;;;;;;22.02;40.92;93415.63;4952843;28;20381;-77
2022/09/16 03:38:11;;;;;;;4.05;1.20;;;;;;;22.06;40.52;93397.41;4950213;28;20113;-78
2022/09/16 03:40:37;;;;;;;2.20;1.05;;;;;;;21.91;40.10;93387.06;4952778;28;20027;-77
2022/09/16 03:43:13;;;;;;;5.63;1.35;;;;;;;22.09;40.33;93406.69;4950909;28;20092;-79
2022/09/16 03:45:41;;;;;;;3.83;1.08;;;;;;;21.97;39.44;93370.00;4950937;28;20015;-78
2022/09/16 03:48:08;;;;;;;18.17;1.95;;;;;;;22.01;39.94;93362.63;4952779;28;20770;-78
2022/09/16 03:50:33;;;;;;;3.92;1.08;;;;;;;21.95;40.31;93364.22;4951582;28;20035;-77
2022/09/16 03:52:58;;;;;;;5.90;1.48;;;;;;;21.91;40.54;93358.06;4953346;28;20406;-79
2022/09/16 03:55:24;;;;;;;6.35;1.85;;;;;;;21.95;40.35;93368.88;4955543;28;20037;-78
2022/09/16 03:57:52;;;;;;;4.72;1.05;;;;;;;21.90;40.58;93361.94;4953211;28;20054;-77
2022/09/16 04:00:17;;;;;;;5.60;1.63;;;;;;;21.97;40.54;93388.19;4953258;28;20122;-78
2022/09/16 04:02:42;;;;;;;3.55;1.30;;;;;;;22.02;40.58;93398.59;4950894;28;20019;-76
2022/09/16 04:05:08;;;;;;;4.88;1.33;;;;;;;22.02;40.83;93410.22;4951776;28;20031;-78
2022/09/16 04:07:34;;;;;;;6.65;1.40;;;;;;;21.96;41.26;93443.50;4950343;28;20018;-76
2022/09/16 04:10:00;;;;;;;4.60;1.20;;;;;;;21.80;41.41;93430.44;4952494;28;20037;-79
2022/09/16 04:12:26;;;;;;;4.30;1.50;;;;;;;21.84;41.71;93447.44;4956972;28;20449;-78
2022/09/16 04:14:51;;;;;;;4.60;1.40;;;;;;;21.78;41.57;93459.81;4952807;28;20117;-77
2022/09/16 04:17:17;;;;;;;5.97;1.50;;;;;;;21.79;41.52;93459.44;4950374;28;20108;-77
2022/09/16 04:19:42;;;;;;;3.30;1.58;;;;;;;21.74;41.57;93464.47;4951844;28;20045;-77
2022/09/16 04:22:08;;;;;;;4.20;2.55;;;;;;;21.52;41.42;93455.59;4950477;28;20045;-79
2022/09/16 04:24:34;;;;;;;4.00;1.27;;;;;;;21.51;41.83;93456.00;4956107;28;20516;-78
2022/09/16 04:26:59;;;;;;;2.25;1.02;;;;;;;20.97;41.87;93431.00;4953478;28;20035;-79
2022/09/16 04:29:26;;;;;;;2.85;1.67;;;;;;;21.16;41.89;93452.22;4950593;28;20015;-77
2022/09/16 04:31:52;;;;;;;8.57;2.03;;;;;;;21.15;41.74;93447.19;4956754;28;20112;-77
2022/09/16 04:34:18;;;;;;;5.70;1.90;;;;;;;21.19;41.60;93453.34;4952663;28;20573;-77
2022/09/16 04:36:43;;;;;;;4.90;1.60;;;;;;;21.20;41.84;93423.22;4951332;28;20086;-77
2022/09/16 04:39:08;;;;;;;3.67;1.10;;;;;;;21.39;42.20;93444.44;4949314;28;20027;-77
2022/09/16 04:41:34;;;;;;;5.22;2.00;;;;;;;21.45;41.71;93448.28;4951591;28;20540;-75
2022/09/16 04:44:00;;;;;;;3.78;1.58;;;;;;;21.52;41.72;93452.13;4952786;28;20035;-77
2022/09/16 04:46:27;;;;;;;7.22;1.65;;;;;;;21.54;41.56;93460.63;4954143;28;20486;-75
2022/09/16 04:48:54;;;;;;;5.38;1.13;;;;;;;21.61;42.29;93469.53;4949601;28;20110;-77
2022/09/16 04:51:21;;;;;;;3.50;1.75;;;;;;;21.65;42.75;93466.81;4954776;28;20026;-75
2022/09/16 04:53:47;;;;;;;2.78;1.50;;;;;;;21.64;42.63;93459.88;4953549;28;20023;-77
2022/09/16 04:56:15;;;;;;;5.03;1.52;;;;;;;21.61;42.34;93449.84;4948341;28;20027;-76
2022/09/16 04:58:43;;;;;;;8.38;1.88;;;;;;;21.59;42.61;93465.69;4955291;28;20112;-76
2022/09/16 05:01:12;;;;;;;3.58;1.63;;;;;;;21.44;43.47;93457.56;4951726;28;20058;-76
2022/09/16 05:03:39;;;;;;;6.28;2.08;;;;;;;21.47;42.56;93453.28;4955848;28;20050;-76
2022/09/16 05:06:07;;;;;;;3.40;1.42;;;;;;;21.60;42.60;93468.00;4956188;28;20042;-76
2022/09/16 05:08:34;;;;;;;3.88;1.48;;;;;;;21.61;43.53;93456.00;4957025;28;20027;-76
2022/09/16 05:11:08;;;;;;;2.13;1.67;;;;;;;21.52;43.67;93446.72;4955042;28;20035;-77
2022/09/16 05:13:34;;;;;;;4.43;1.52;;;;;;;21.60;43.49;93453.69;4954006;28;20042;-76
2022/09/16 05:16:04;;;;;;;2.40;1.10;;;;;;;21.66;43.93;93447.47;4953941;28;20034;-77
2022/09/16 05:18:29;;;;;;;2.78;1.35;;;;;;;21.81;43.27;93459.03;4955025;28;20035;-76
2022/09/16 05:20:59;;;;;;;8.82;1.80;;;;;;;21.87;43.17;93441.22;4954314;28;20078;-77
2022/09/16 05:23:26;;;;;;;7.97;1.40;;;;;;;21.96;42.50;93428.03;4955374;28;20031;-76
2022/09/16 05:25:52;;;;;;;5.28;2.00;;;;;;;21.99;42.18;93418.34;4952582;28;20141;-76
2022/09/16 05:28:17;;;;;;;2.53;1.20;;;;;;;22.11;40.51;93426.03;4955471;28;20027;-77
2022/09/16 05:30:42;;;;;;;2.22;0.95;;;;;;;22.21;40.42;93423.28;4962503;28;20153;-76
2022/09/16 05:33:08;;;;;;;4.30;1.70;;;;;;;22.31;40.69;93432.53;4960422;28;20607;-78
2022/09/16 05:35:34;;;;;;;3.08;1.00;;;;;;;22.45;40.46;93443.25;4957701;28;20392;-76
2022/09/16 05:37:59;;;;;;;3.45;1.20;;;;;;;22.50;39.95;93442.84;4953858;28;20038;-75
2022/09/16 05:40:26;;;;;;;4.05;1.40;;;;;;;22.46;39.50;93441.31;4950384;28;20133;-77
2022/09/16 05:42:52;;;;;;;8.00;1.90;;;;;;;22.42;39.59;93416.97;4958325;28;21043;-77
2022/09/16 05:45:17;;;;;;;2.55;1.10;;;;;;;22.57;40.80;93423.06;4956048;28;20094;-78
2022/09/16 05:47:47;;;;;;;1.65;1.15;;;;;;;22.55;41.71;93419.97;4968436;28;20030;-77
2022/09/16 05:50:12;;;;;;;3.83;1.02;;;;;;;22.61;42.52;93431.94;4953073;28;20034;-76
2022/09/16 05:52:37;;;;;;;7.05;1.27;;;;;;;22.66;42.69;93426.09;4954172;28;20086;-79
2022/09/16 05:55:03;;;;;;;3.85;1.38;;;;;;;22.72;41.07;93430.69;4955142;28;20035;-79
2022/09/16 05:57:29;;;;;;;2.78;1.30;;;;;;;22.68;39.96;93418.34;4957158;28;20130;-76
2022/09/16 05:59:54;;;;;;;8.90;1.50;;;;;;;22.49;39.33;93380.91;4960453;28;20113;-75
2022/09/16 06:02:19;;;;;;;3.90;1.38;;;;;;;22.90;38.86;93436.00;4959795;28;20505;-79
2022/09/16 06:04:46;;;;;;;3.20;0.95;;;;;;;22.81;38.03;93411.25;4953218;28;20062;-77
2022/09/16 06:07:12;;;;;;;6.03;1.88;;;;;;;22.99;37.98;93438.25;4959232;28;20993;-77
2022/09/16 06:09:37;;;;;;;4.22;1.70;;;;;;;22.96;38.10;93426.28;4956745;28;20030;-76
2022/09/16 06:12:03;;;;;;;1.55;1.10;;;;;;;23.15;38.42;93433.06;4952253;28;20039;-77
2022/09/16 06:14:28;;;;;;;2.88;1.67;;;;;;;23.14;38.51;93418.75;4953649;28;20043;-76
2022/09/16 06:16:54;;;;;;;4.28;1.63;;;;;;;23.28;38.34;93427.91;4955980;28;20030;-77
2022/09/16 06:19:19;;;;;;;6.20;1.77;;;;;;;23.08;37.20;93412.22;4951112;28;20027;-77
2022/09/16 06:21:45;;;;;;;3.78;1.33;;;;;;;23.31;37.81;93429.84;4956671;28;20131;-77
2022/09/16 06:24:13;;;;;;;3.78;1.08;;;;;;;23.25;37.85;93399.66;4955037;28;20474;-77
2022/09/16 06:26:40;;;;;;;5.00;1.15;;;;;;;23.36;37.55;93423.97;4957791;28;20030;-81
2022/09/16 06:29:07;;;;;;;2.17;1.20;;;;;;;23.45;37.94;93416.13;4961525;28;20398;-77
2022/09/16 06:31:33;;;;;;;5.57;1.15;;;;;;;23.41;38.30;93404.53;4960878;28;20497;-77
2022/09/16 06:33:59;;;;;;;4.32;2.30;;;;;;;23.56;38.51;93420.28;4968955;28;20056;-77
2022/09/16 06:36:27;;;;;;;2.70;1.30;;;;;;;23.45;37.48;93406.03;4969670;28;20019;-77
2022/09/16 06:38:53;;;;;;;5.97;2.45;;;;;;;23.51;38.10;93398.25;4969525;28;20043;-77
2022/09/16 06:41:19;;;;;;;6.85;1.95;;;;;;;23.63;37.69;93415.94;4962834;28;20018;-76
2022/09/16 06:43:45;;;;;;;6.70;1.35;;;;;;;23.56;36.67;93406.69;4962355;28;20031;-75
2022/09/16 06:46:15;;;;;;;5.72;1.45;;;;;;;23.69;36.60;93431.41;4971623;28;20039;-76
2022/09/16 06:48:42;;;;;;;6.28;1.77;;;;;;;23.75;37.52;93431.72;4970649;28;20473;-75
2022/09/16 06:51:11;;;;;;;3.35;1.13;;;;;;;23.83;37.96;93442.09;4970785;28;20109;-76
2022/09/16 06:53:37;;;;;;;3.10;1.20;;;;;;;23.67;37.25;93406.59;4972606;28;20046;-75
2022/09/16 06:56:05;;;;;;;2.50;1.30;;;;;;;23.77;37.03;93408.41;4971485;28;20035;-75
2022/09/16 06:58:35;;;;;;;6.95;1.77;;;;;;;23.92;36.54;93426.06;4971406;28;20034;-75
2022/09/16 07:01:13;;;;;;;4.05;1.63;;;;;;;24.00;36.68;93430.22;4970313;28;20039;-75
2022/09/16 07:03:41;;;;;;;6.07;1.40;;;;;;;23.90;37.20;93406.72;4972267;28;20437;-76
2022/09/16 07:06:07;;;;;;;5.38;1.27;;;;;;;24.05;35.76;93426.31;4973608;28;20023;-75
2022/09/16 07:08:35;;;;;;;3.03;1.27;;;;;;;24.02;36.28;93419.75;4961929;28;20023;-76
2022/09/16 07:11:05;;;;;;;6.93;1.75;;;;;;;24.11;36.35;93429.31;4953480;28;20478;-77
2022/09/16 07:13:31;;;;;;;3.50;1.10;;;;;;;23.97;35.76;93414.75;4951794;28;20033;-78
2022/09/16 07:16:01;;;;;;;4.45;1.92;;;;;;;23.90;35.66;93404.00;4959782;28;20030;-76
2022/09/16 07:18:29;;;;;;;2.80;1.10;;;;;;;24.19;35.92;93428.09;4962869;28;20018;-74
2022/09/16 07:21:03;;;;;;;2.10;1.17;;;;;;;24.19;34.81;93422.66;4969039;28;20373;-74
2022/09/16 07:23:33;;;;;;;4.75;3.33;;;;;;;24.25;35.61;93423.72;4974483;28;20026;-75
2022/09/16 07:26:19;;;;;;;10.48;1.63;;;;;;;24.22;35.54;93424.56;4967389;28;20051;-73
2022/09/16 07:28:47;;;;;;;3.75;1.20;;;;;;;24.26;35.69;93419.84;4960071;28;20556;-73
2022/09/16 07:31:24;;;;;;;3.92;1.55;;;;;;;24.29;35.90;93419.03;4962864;28;20066;-73
2022/09/16 07:33:51;;;;;;;8.43;2.05;;;;;;;24.34;36.50;93421.31;4963508;28;20488;-74
2022/09/16 07:36:25;;;;;;;56.55;41.13;;;;;;;24.16;36.61;93394.34;4964989;28;20352;-73
2022/09/16 07:38:51;;;;;;;10.63;6.10;;;;;;;24.27;36.28;93405.09;4965996;28;20034;-74
2022/09/16 07:41:22;;;;;;;4.28;1.80;;;;;;;24.42;36.11;93407.19;4961952;28;20035;-74
2022/09/16 07:43:49;;;;;;;3.50;1.77;;;;;;;24.49;35.81;93411.00;4964174;28;20030;-76
2022/09/16 07:46:17;;;;;;;3.67;1.33;;;;;;;24.43;35.65;93386.22;4969212;28;20472;-73
2022/09/16 07:48:44;;;;;;;4.10;1.98;;;;;;;24.41;37.29;93391.28;4963660;28;20101;-75
2022/09/16 07:51:12;;;;;;;5.57;1.88;;;;;;;24.23;35.54;93377.19;4960140;28;20033;-73
2022/09/16 07:53:38;;;;;;;50.67;33.67;;;;;;;24.28;35.47;93379.44;4959353;28;20029;-74
2022/09/16 07:56:05;;;;;;;9.40;4.43;;;;;;;24.32;35.77;93383.66;4959519;28;20030;-73
2022/09/16 07:58:32;;;;;;;4.93;1.67;;;;;;;24.48;35.52;93404.78;4958538;28;20091;-74
2022/09/16 08:00:58;;;;;;;10.27;2.63;;;;;;;24.31;35.59;93367.75;4957005;28;20071;-75
2022/09/16 08:03:24;;;;;;;4.90;1.63;;;;;;;24.32;37.03;93380.16;4959595;28;20030;-77
2022/09/16 08:05:50;;;;;;;4.25;1.58;;;;;;;24.26;36.07;93365.50;4955469;28;20022;-77
2022/09/16 08:08:15;;;;;;;7.97;1.42;;;;;;;24.46;35.96;93392.78;4954906;28;20365;-77
2022/09/16 08:10:40;;;;;;;3.65;1.75;;;;;;;24.40;36.59;93359.84;4952508;28;20031;-77
2022/09/16 08:13:07;;;;;;;5.65;2.25;;;;;;;24.36;35.87;93348.28;4954186;28;20409;-78
2022/09/16 08:15:32;;;;;;;12.32;2.17;;;;;;;24.63;36.26;93378.94;4958519;28;20037;-76
2022/09/16 08:17:58;;;;;;;5.30;1.50;;;;;;;24.68;35.55;93364.88;4958779;28;20034;-77
2022/09/16 08:20:25;;;;;;;5.40;2.20;;;;;;;24.77;35.23;93375.22;4953434;28;20039;-77
2022/09/16 08:22:50;;;;;;;8.95;2.30;;;;;;;24.79;35.75;93372.84;4955987;28;20058;-78
2022/09/16 08:25:16;;;;;;;7.63;1.70;;;;;;;24.71;36.03;93357.81;4956196;28;20481;-78
2022/09/16 08:27:41;;;;;;;3.08;1.85;;;;;;;24.68;37.13;93347.78;4954651;28;20043;-77
2022/09/16 08:30:09;;;;;;;6.68;2.58;;;;;;;24.80;36.26;93369.72;4954959;28;21062;-78
2022/09/16 08:32:34;;;;;;;22.25;5.32;;;;;;;24.91;37.00;93360.63;4957867;28;20158;-78
2022/09/16 08:35:00;;;;;;;17.15;9.32;;;;;;;24.95;37.58;93372.97;4952555;28;20022;-77
2022/09/16 08:37:26;;;;;;;10.35;1.95;;;;;;;24.89;35.96;93362.97;4956488;28;20103;-77
2022/09/16 08:39:51;;;;;;;3.20;1.48;;;;;;;24.91;35.72;93347.78;4955302;28;20661;-74
2022/09/16 08:42:46;;;;;;;5.18;1.95;;;;;;;25.13;36.48;93367.22;4954107;28;20071;-76
2022/09/16 09:22:47;;;;;;;4.60;1.50;;;;;;;25.01;36.80;93354.22;5099243;27;20483;-79
2022/09/16 09:25:33;;;;;;;9.27;2.10;;;;;;;24.98;36.48;93355.81;5092119;28;20032;-80
2022/09/16 09:28:46;;;;;;;6.80;2.13;;;;;;;24.89;36.08;93362.97;5089779;28;20141;-81
2022/09/16 09:31:26;;;;;;;7.50;2.13;;;;;;;24.81;36.58;93357.69;5033039;28;20023;-81
2022/09/16 09:33:55;;;;;;;8.35;2.50;;;;;;;24.85;36.50;93357.59;5084523;28;20032;-80
2022/09/16 09:36:31;;;;;;;9.38;2.40;;;;;;;24.87;36.76;93365.38;5090037;28;20027;-81
2022/09/16 09:39:18;;;;;;;4.07;1.63;;;;;;;24.84;35.51;93367.72;5096785;28;20483;-82
2022/09/16 09:41:52;;;;;;;3.95;1.77;;;;;;;24.93;35.91;93363.72;5095139;28;20069;-81
2022/09/16 09:45:02;;;;;;;16.70;4.60;;;;;;;24.98;36.62;93365.97;5120814;27;20127;-81
2022/09/16 09:47:46;;;;;;;9.18;2.40;;;;;;;25.01;35.99;93374.03;5072777;28;20050;-81
2022/09/16 09:50:24;;;;;;;7.93;2.30;;;;;;;24.60;35.28;93324.59;5088188;28;20020;-79
2022/09/16 09:53:05;;;;;;;7.25;2.60;;;;;;;24.83;35.42;93340.94;5088171;28;20609;-80
2022/09/16 09:55:33;;;;;;;6.68;2.92;;;;;;;24.95;36.05;93353.16;5092899;28;20020;-80
2022/09/16 09:58:08;;;;;;;6.03;2.63;;;;;;;25.08;37.10;93386.75;5089169;28;20444;-80
2022/09/16 10:00:34;;;;;;;5.82;2.00;;;;;;;25.09;37.57;93396.44;5091394;28;20470;-79
2022/09/16 10:03:10;;;;;;;6.30;2.55;;;;;;;25.09;37.95;93405.38;5085386;28;20039;-80
2022/09/16 10:05:36;;;;;;;4.65;2.17;;;;;;;24.87;38.16;93396.06;5086384;28;20038;-81
2022/09/16 10:08:40;;;;;;;5.82;2.35;;;;;;;24.81;39.70;93412.06;5083347;28;20020;-80
2022/09/16 10:11:27;;;;;;;3.50;2.20;;;;;;;24.82;40.03;93435.38;5083043;28;20024;-81
2022/09/16 10:13:56;;;;;;;7.30;2.40;;;;;;;24.62;40.47;93433.69;5063645;28;20209;-80
2022/09/16 10:16:26;;;;;;;7.35;2.30;;;;;;;24.37;41.07;93437.56;5065341;28;20024;-80
2022/09/16 10:19:04;;;;;;;8.25;3.33;;;;;;;24.35;41.30;93488.03;5063325;28;20025;-80
2022/09/16 10:21:49;;;;;;;4.80;2.15;;;;;;;24.33;41.40;93495.84;5059679;28;20045;-80
2022/09/16 10:24:35;;;;;;;6.05;1.80;;;;;;;24.32;41.32;93524.97;5053021;28;20016;-80
2022/09/16 10:27:34;;;;;;;3.67;2.00;;;;;;;24.13;43.26;93546.53;5050620;28;20082;-80
2022/09/16 10:30:03;;;;;;;5.25;1.90;;;;;;;23.60;45.22;93585.06;5058574;28;20021;-80
2022/09/16 10:32:28;;;;;;;3.00;1.50;;;;;;;23.17;45.99;93591.53;5049650;28;20098;-79
2022/09/16 10:34:55;;;;;;;3.97;1.48;;;;;;;23.22;47.69;93597.72;5052342;28;20067;-78
2022/09/16 10:37:22;;;;;;;6.22;1.95;;;;;;;22.60;47.25;93561.25;5051411;28;20387;-79
2022/09/16 10:39:57;;;;;;;2.42;0.77;;;;;;;22.34;48.52;93577.25;5052630;28;20043;-79
2022/09/16 10:42:25;;;;;;;1.80;0.93;;;;;;;22.04;49.02;93575.00;5068284;28;20447;-82
2022/09/16 10:44:53;;;;;;;4.50;1.20;;;;;;;21.91;49.80;93587.38;5051598;28;20059;-79
2022/09/16 10:47:29;;;;;;;2.22;0.88;;;;;;;21.59;49.68;93568.50;5051516;28;20028;-79
2022/09/16 10:49:57;;;;;;;4.60;1.65;;;;;;;21.15;52.54;93566.94;5055071;28;20028;-80
2022/09/16 10:52:25;;;;;;;5.72;0.90;;;;;;;20.80;53.42;93597.34;5050648;28;20448;-81
2022/09/16 10:54:52;;;;;;;1.10;0.80;;;;;;;20.49;53.50;93569.09;5048800;28;20029;-81
2022/09/16 10:57:32;;;;;;;2.08;0.95;;;;;;;20.33;55.27;93555.16;5051895;28;20437;-81
2022/09/16 11:00:10;;;;;;;2.50;0.52;;;;;;;19.95;54.92;93542.22;5052034;28;20032;-81
2022/09/16 11:03:13;;;;;;;1.23;0.95;;;;;;;19.77;55.07;93530.56;5051070;28;20805;-81
2022/09/16 11:05:43;;;;;;;0.98;0.60;;;;;;;19.59;53.55;93508.88;5079659;28;20139;-80
2022/09/16 11:08:11;;;;;;;1.05;0.60;;;;;;;19.54;55.68;93504.63;5048802;28;20175;-81
2022/09/16 11:10:47;;;;;;;2.67;0.80;;;;;;;19.32;55.93;93484.03;5051386;28;20012;-81
2022/09/16 11:13:15;;;;;;;3.90;0.90;;;;;;;19.42;55.96;93467.16;5051471;28;20098;-81
2022/09/16 11:15:50;;;;;;;0.85;0.50;;;;;;;19.45;52.46;93452.97;5050266;28;20056;-81
2022/09/16 11:18:24;;;;;;;;;;;;;;;19.58;51.42;93456.88;5054903;28;20079;-81
2022/09/16 11:21:18;;;;;;;1.52;0.40;;;;;;;19.81;51.08;93434.22;5046122;28;19924;-80
2022/09/16 11:23:52;;;;;;;1.52;0.40;;;;;;;19.96;47.33;93430.41;5050498;28;20029;-80
2022/09/16 11:26:36;;;;;;;0.65;0.25;;;;;;;20.13;46.52;93424.31;5047824;28;20055;-80
2022/09/16 11:29:29;;;;;;;0.30;0.30;;;;;;;20.36;47.16;93408.56;5047596;28;20033;-81
2022/09/16 11:32:14;;;;;;;0.50;0.30;;;;;;;20.25;45.71;93348.34;5047898;28;20144;-81
2022/09/16 11:34:42;;;;;;;0.32;0.28;;;;;;;20.74;45.41;93381.94;5064097;28;20346;-81
2022/09/16 11:37:13;;;;;;;0.30;0.22;;;;;;;20.90;45.52;93376.94;5055486;28;20590;-79
2022/09/16 11:40:25;;;;;;;0.40;0.40;;;;;;;21.14;44.22;93357.19;5050428;28;20043;-81
2022/09/16 11:43:07;;;;;;;0.28;0.20;;;;;;;20.97;43.73;93314.75;5034663;28;20118;-80
2022/09/16 11:45:51;;;;;;;0.20;0.20;;;;;;;21.40;44.58;93359.44;5048126;28;20078;-80
2022/09/16 11:48:41;;;;;;;0.20;0.20;;;;;;;21.57;43.14;93359.75;5049295;28;20020;-81
2022/09/16 11:51:35;;;;;;;0.60;0.60;;;;;;;21.68;42.88;93338.84;5049898;28;20055;-80
2022/09/16 11:54:03;;;;;;;0.65;0.28;;;;;;;21.99;42.27;93356.09;5052839;28;20166;-80
2022/09/16 11:56:39;;;;;;;0.20;0.13;;;;;;;22.15;41.48;93351.72;5048192;28;20028;-82
2022/09/16 11:59:14;;;;;;;0.47;0.30;;;;;;;22.28;40.68;93350.13;5049522;28;20063;-80
2022/09/16 12:01:47;;;;;;;0.30;0.30;;;;;;;22.40;41.55;93340.72;5080487;28;20039;-81
2022/09/16 12:04:34;;;;;;;3.55;1.15;;;;;;;22.52;40.70;93329.41;5047317;28;20081;-81
2022/09/16 12:07:11;;;;;;;0.77;0.40;;;;;;;22.20;41.02;93271.97;5048072;28;20020;-80
2022/09/16 12:09:43;;;;;;;1.05;0.38;;;;;;;22.75;40.92;93336.97;5047496;28;20024;-81
2022/09/16 12:12:23;;;;;;;0.40;0.40;;;;;;;22.90;40.64;93343.81;5047401;28;20024;-80
2022/09/16 12:14:58;;;;;;;1.13;0.57;;;;;;;23.00;39.84;93351.09;5053812;28;20036;-80
2022/09/16 12:17:28;;;;;;;1.50;0.73;;;;;;;23.08;39.74;93359.91;5046769;28;20039;-80
2022/09/16 12:20:03;;;;;;;0.73;0.50;;;;;;;23.01;40.05;93355.34;5047543;28;20033;-81
2022/09/16 12:22:35;;;;;;;0.80;0.65;;;;;;;23.12;40.74;93366.81;5046975;28;20044;-80
2022/09/16 12:25:12;;;;;;;1.08;0.65;;;;;;;23.29;40.21;93378.69;5046655;28;20082;-80
2022/09/16 12:28:02;;;;;;;1.23;0.88;;;;;;;23.37;39.28;93376.66;5063299;28;20025;-81
2022/09/16 12:30:36;;;;;;;1.58;0.60;;;;;;;23.39;38.58;93379.75;5047449;28;20096;-80
2022/09/16 12:33:27;;;;;;;1.53;0.70;;;;;;;23.44;38.66;93395.56;5047937;28;20027;-80
2022/09/16 12:36:14;;;;;;;2.60;0.90;;;;;;;23.58;42.81;93393.50;5047003;28;20020;-81